Time;durP1;ratioP1;P1;durP2;ratioP2;P2;SDS_P1;SDS_P2;PMS_P1;PMS_P2;Temp;Humidity;BMP_temperature;BMP_pressure;BME280_temperature;BME280_humidity;BME280_pressure;Samples;Min_cycle;Max_cycle;Signal;HPM_P1;HPM_P2
2021/09/11 00:01:02;;;;;;;9.50;8.70;;;;;;;20.66;73.13;100733.22;5071313;28;20434;-50
2021/09/11 00:03:28;;;;;;;9.63;8.70;;;;;;;20.66;73.14;100735.91;5070730;28;20020;-51
2021/09/11 00:05:54;;;;;;;10.02;9.13;;;;;;;20.66;73.11;100735.91;5055134;28;20039;-50
2021/09/11 00:08:20;;;;;;;10.25;9.25;;;;;;;20.66;73.07;100729.66;5069700;28;20494;-51
2021/09/11 00:10:46;;;;;;;9.95;9.07;;;;;;;20.64;73.05;100725.28;5071234;28;20032;-51
2021/09/11 00:13:11;;;;;;;9.75;8.95;;;;;;;20.64;73.13;100722.59;5070991;28;20032;-50
2021/09/11 00:15:37;;;;;;;9.30;8.50;;;;;;;20.64;73.06;100721.72;5069445;28;20024;-50
2021/09/11 00:18:05;;;;;;;9.80;8.98;;;;;;;20.64;72.92;100717.22;5070432;28;20429;-50
2021/09/11 00:20:31;;;;;;;9.18;8.45;;;;;;;20.64;72.93;100724.38;5068715;28;20028;-50
2021/09/11 00:22:58;;;;;;;9.88;9.05;;;;;;;20.62;72.91;100721.81;5070124;28;20024;-50
2021/09/11 00:25:24;;;;;;;9.93;9.13;;;;;;;20.62;72.85;100720.94;5067566;28;20031;-50
2021/09/11 00:27:50;;;;;;;9.75;8.93;;;;;;;20.61;72.98;100720.06;5067823;28;20028;-51
2021/09/11 00:30:16;;;;;;;10.30;9.40;;;;;;;20.62;72.89;100723.63;5069575;28;20036;-51
2021/09/11 00:32:45;;;;;;;9.73;8.82;;;;;;;20.61;72.89;100712.03;5069086;28;20055;-51
2021/09/11 00:35:15;;;;;;;9.68;8.77;;;;;;;20.62;72.82;100732.53;5068987;28;20059;-50
2021/09/11 00:37:41;;;;;;;9.80;8.90;;;;;;;20.61;72.83;100728.09;5070577;28;20027;-50
2021/09/11 00:40:08;;;;;;;9.95;9.05;;;;;;;20.61;72.89;100728.09;5070020;28;20178;-51
2021/09/11 00:42:34;;;;;;;9.95;9.05;;;;;;;20.60;72.84;100729.06;5068231;28;20529;-50
2021/09/11 00:45:00;;;;;;;9.25;8.45;;;;;;;20.61;72.76;100729.94;5068926;28;20032;-50
2021/09/11 00:47:26;;;;;;;10.15;9.27;;;;;;;20.60;72.92;100733.53;5068832;28;20099;-50
2021/09/11 00:49:52;;;;;;;9.88;8.98;;;;;;;20.60;72.84;100731.72;5069930;28;20032;-50
2021/09/11 00:52:18;;;;;;;9.48;8.57;;;;;;;20.59;72.79;100735.38;5069909;28;20048;-51
2021/09/11 00:54:44;;;;;;;9.25;8.45;;;;;;;20.59;72.86;100735.38;5053535;28;20024;-50
2021/09/11 00:57:10;;;;;;;9.30;8.50;;;;;;;20.58;72.80;100730.94;5052705;28;20024;-50
2021/09/11 00:59:36;;;;;;;9.85;8.95;;;;;;;20.59;72.85;100735.38;5066170;28;20016;-50
2021/09/11 01:02:02;;;;;;;10.20;9.25;;;;;;;20.58;72.79;100728.25;5069534;28;20025;-51
2021/09/11 01:04:29;;;;;;;9.05;8.35;;;;;;;20.58;72.75;100730.06;5068798;28;20029;-50
2021/09/11 01:06:56;;;;;;;9.27;8.45;;;;;;;20.57;72.70;100729.19;5069787;28;20024;-50
2021/09/11 01:09:22;;;;;;;9.35;8.55;;;;;;;20.57;72.68;100725.66;5051464;28;20027;-51
2021/09/11 01:11:48;;;;;;;9.70;8.90;;;;;;;20.56;72.73;100724.78;5069067;28;20032;-50
2021/09/11 01:14:13;;;;;;;9.40;8.57;;;;;;;20.57;72.74;100729.19;5068602;28;20028;-50
2021/09/11 01:16:39;;;;;;;10.25;9.35;;;;;;;20.56;72.70;100729.28;5068751;28;20028;-50
2021/09/11 01:19:05;;;;;;;9.35;8.55;;;;;;;20.55;72.68;100722.19;5069174;28;20029;-50
2021/09/11 01:21:31;;;;;;;10.18;8.88;;;;;;;20.55;72.65;100728.44;5069782;28;20028;-51
2021/09/11 01:23:57;;;;;;;9.43;8.70;;;;;;;20.55;72.70;100731.09;5068800;28;20020;-50
2021/09/11 01:26:22;;;;;;;9.77;8.88;;;;;;;20.54;72.75;100732.03;5053456;28;20029;-50
2021/09/11 01:28:48;;;;;;;8.82;7.93;;;;;;;20.54;72.71;100732.03;5069602;28;20028;-50
2021/09/11 01:31:14;;;;;;;9.45;8.55;;;;;;;20.54;72.77;100732.03;5069971;28;20036;-51
2021/09/11 01:33:40;;;;;;;9.63;8.73;;;;;;;20.54;72.79;100728.50;5068400;28;20021;-51
2021/09/11 01:36:06;;;;;;;9.50;8.60;;;;;;;20.53;72.57;100730.31;5068705;28;20385;-51
2021/09/11 01:38:32;;;;;;;9.98;9.07;;;;;;;20.53;72.45;100732.13;5068793;28;20027;-50
2021/09/11 01:40:58;;;;;;;9.32;8.63;;;;;;;20.55;72.53;100739.13;5068319;28;20032;-51
2021/09/11 01:43:31;;;;;;;9.55;8.70;;;;;;;20.53;72.53;100730.31;5068521;28;20425;-50
2021/09/11 01:45:58;;;;;;;10.02;9.13;;;;;;;20.54;72.57;100733.84;5053257;28;20040;-50
2021/09/11 01:48:26;;;;;;;9.80;8.90;;;;;;;20.53;72.51;100734.81;5052741;28;20023;-51
2021/09/11 01:50:52;;;;;;;10.80;9.80;;;;;;;20.53;72.36;100734.81;5068117;28;20028;-51
2021/09/11 01:53:18;;;;;;;9.27;8.45;;;;;;;20.53;72.45;100729.44;5068043;28;20093;-50
2021/09/11 01:55:44;;;;;;;10.13;9.23;;;;;;;20.51;72.43;100724.16;5072540;28;20020;-50
2021/09/11 01:58:10;;;;;;;9.23;8.43;;;;;;;20.52;72.58;100728.56;5072821;28;20024;-50
2021/09/11 02:00:36;;;;;;;10.05;9.15;;;;;;;20.53;72.25;100737.50;5072264;28;20040;-50
2021/09/11 02:03:01;;;;;;;9.73;8.82;;;;;;;20.51;72.44;100732.22;5073165;28;20085;-50
2021/09/11 02:05:27;;;;;;;9.65;8.82;;;;;;;20.51;72.48;100734.88;5055954;28;20028;-50
2021/09/11 02:07:53;;;;;;;9.70;8.88;;;;;;;20.51;72.51;100735.72;5057758;28;20120;-50
2021/09/11 02:10:19;;;;;;;9.57;8.88;;;;;;;20.51;72.42;100732.22;5072605;28;20032;-50
2021/09/11 02:12:45;;;;;;;9.25;8.45;;;;;;;20.50;72.54;100735.81;5056576;28;20110;-50
2021/09/11 02:15:11;;;;;;;9.50;8.70;;;;;;;20.51;72.56;100734.88;5073013;28;20059;-50
2021/09/11 02:17:38;;;;;;;9.88;9.05;;;;;;;20.49;72.32;100734.09;5073091;28;20446;-50
2021/09/11 02:20:05;;;;;;;9.57;8.77;;;;;;;20.48;72.50;100743.06;5057706;28;20397;-51
2021/09/11 02:22:31;;;;;;;9.80;8.85;;;;;;;20.48;72.51;100738.56;5073178;28;20076;-50
2021/09/11 02:24:57;;;;;;;9.40;8.52;;;;;;;20.49;72.53;100731.41;5070783;28;20451;-50
2021/09/11 02:27:23;;;;;;;8.90;8.20;;;;;;;20.48;72.44;100741.25;5071376;28;20078;-50
2021/09/11 02:29:49;;;;;;;9.77;8.98;;;;;;;20.47;72.46;100731.47;5054323;28;20025;-50
2021/09/11 02:32:15;;;;;;;9.77;8.90;;;;;;;20.46;72.54;100734.22;5072696;28;20055;-51
2021/09/11 02:34:41;;;;;;;9.32;8.52;;;;;;;20.47;72.44;100731.47;5072209;28;20044;-50
2021/09/11 02:37:08;;;;;;;9.50;8.70;;;;;;;20.48;72.22;100721.63;5072895;28;20066;-50
2021/09/11 02:39:34;;;;;;;9.00;8.20;;;;;;;20.48;72.37;100729.69;5072062;28;20020;-50
2021/09/11 02:42:00;;;;;;;9.02;8.18;;;;;;;20.47;72.47;100722.59;5071306;28;20047;-50
2021/09/11 02:44:26;;;;;;;9.20;8.40;;;;;;;20.47;72.48;100733.31;5071834;28;20035;-50
2021/09/11 02:46:52;;;;;;;9.40;8.60;;;;;;;20.46;72.51;100740.47;5072384;28;20032;-50
2021/09/11 02:49:18;;;;;;;9.73;8.82;;;;;;;20.46;72.46;100731.56;5072044;28;20021;-50
2021/09/11 02:51:43;;;;;;;9.48;8.65;;;;;;;20.45;72.37;100733.38;5072252;28;20490;-50
2021/09/11 02:54:10;;;;;;;9.65;8.82;;;;;;;20.46;72.46;100744.94;5054952;28;20111;-50
2021/09/11 02:56:36;;;;;;;8.88;8.13;;;;;;;20.46;72.37;100744.94;5070723;28;20040;-50
2021/09/11 02:59:02;;;;;;;8.63;7.85;;;;;;;20.44;72.38;100745.00;5071407;28;20020;-50
2021/09/11 03:01:28;;;;;;;9.85;8.95;;;;;;;20.44;72.31;100753.06;5056317;28;20082;-50
2021/09/11 03:03:54;;;;;;;8.65;7.93;;;;;;;20.43;72.34;100754.00;5069155;28;20082;-50
2021/09/11 03:06:20;;;;;;;8.98;8.25;;;;;;;20.43;72.37;100754.00;5071610;28;20020;-50
2021/09/11 03:08:46;;;;;;;8.88;7.97;;;;;;;20.42;72.31;100760.31;5071373;28;20436;-50
2021/09/11 03:11:12;;;;;;;8.85;8.15;;;;;;;20.41;72.35;100753.22;5068158;28;20031;-50
2021/09/11 03:13:38;;;;;;;9.20;8.30;;;;;;;20.42;72.38;100756.75;5071734;28;20036;-51
2021/09/11 03:16:04;;;;;;;9.43;8.63;;;;;;;20.40;72.42;100750.63;5070531;28;20662;-50
2021/09/11 03:18:30;;;;;;;9.07;8.38;;;;;;;20.41;72.31;100752.34;5070217;28;20554;-51
2021/09/11 03:20:56;;;;;;;9.60;8.77;;;;;;;20.40;72.37;100750.63;5071571;28;20119;-51
2021/09/11 03:23:22;;;;;;;9.18;8.38;;;;;;;20.40;72.27;100756.81;5070687;28;20727;-51
2021/09/11 03:25:48;;;;;;;8.80;8.10;;;;;;;20.40;72.34;100750.63;5070245;28;20028;-50
2021/09/11 03:28:14;;;;;;;8.93;8.23;;;;;;;20.38;72.41;100746.19;5070242;28;20051;-50
2021/09/11 03:30:39;;;;;;;9.13;8.35;;;;;;;20.38;72.40;100748.88;5071499;28;20024;-50
2021/09/11 03:33:05;;;;;;;9.05;8.35;;;;;;;20.38;72.49;100745.34;5070897;28;20020;-50
2021/09/11 03:35:31;;;;;;;9.25;8.48;;;;;;;20.38;72.31;100750.69;5070546;28;20020;-50
2021/09/11 03:37:57;;;;;;;8.95;8.15;;;;;;;20.37;72.35;100747.13;5072185;28;20027;-51
2021/09/11 03:40:23;;;;;;;8.57;7.88;;;;;;;20.36;72.26;100750.78;5071421;28;20047;-50
2021/09/11 03:42:49;;;;;;;8.35;7.70;;;;;;;20.37;72.41;100751.63;5068582;28;20131;-51
2021/09/11 03:45:15;;;;;;;8.73;8.02;;;;;;;20.35;72.40;100749.03;5069301;28;20154;-51
2021/09/11 03:47:41;;;;;;;8.80;8.10;;;;;;;20.35;72.38;100745.50;5069393;28;20506;-50
2021/09/11 03:50:08;;;;;;;9.05;8.25;;;;;;;20.35;72.44;100749.03;5053231;28;20056;-51
2021/09/11 03:52:34;;;;;;;8.48;7.78;;;;;;;20.35;72.42;100743.69;5070673;28;20024;-50
2021/09/11 03:55:00;;;;;;;8.48;7.78;;;;;;;20.35;72.44;100749.03;5069154;28;20074;-51
2021/09/11 03:57:26;;;;;;;8.30;7.60;;;;;;;20.34;72.39;100744.59;5056091;28;20032;-50
2021/09/11 03:59:52;;;;;;;9.00;8.23;;;;;;;20.34;72.47;100736.56;5069688;28;20035;-50
2021/09/11 04:02:18;;;;;;;7.88;7.20;;;;;;;20.34;72.44;100741.94;5066423;28;20025;-50
2021/09/11 04:04:44;;;;;;;8.07;7.38;;;;;;;20.33;72.40;100750.91;5063611;28;20028;-51
2021/09/11 04:07:10;;;;;;;8.15;7.28;;;;;;;20.33;72.49;100747.34;5070871;28;20105;-50
2021/09/11 04:09:36;;;;;;;8.35;7.65;;;;;;;20.32;72.36;100759.91;5054069;28;20486;-50
2021/09/11 04:12:02;;;;;;;8.77;8.02;;;;;;;20.33;72.18;100750.91;5070835;28;20099;-50
2021/09/11 04:14:28;;;;;;;8.55;7.78;;;;;;;20.32;72.46;100751.88;5070447;28;20032;-51
2021/09/11 04:16:53;;;;;;;8.13;7.43;;;;;;;20.31;72.41;100747.44;5053228;28;20028;-50
2021/09/11 04:19:19;;;;;;;8.50;7.80;;;;;;;20.32;72.40;100746.50;5070558;28;20390;-50
2021/09/11 04:21:45;;;;;;;8.43;7.63;;;;;;;20.32;72.32;100754.53;5070051;28;20780;-51
2021/09/11 04:24:11;;;;;;;8.80;8.00;;;;;;;20.30;72.42;100743.03;5070970;28;20493;-50
2021/09/11 04:26:37;;;;;;;8.45;7.72;;;;;;;20.30;72.44;100743.03;5070344;28;20060;-50
2021/09/11 04:29:06;;;;;;;8.20;7.50;;;;;;;20.30;72.47;100751.06;5070064;28;20382;-51
2021/09/11 04:31:32;;;;;;;8.77;7.97;;;;;;;20.30;72.35;100755.56;5069185;28;20089;-50
2021/09/11 04:33:58;;;;;;;8.30;7.50;;;;;;;20.29;72.43;100751.13;5069360;28;20036;-51
2021/09/11 04:36:24;;;;;;;8.40;7.60;;;;;;;20.29;72.47;100754.69;5069791;28;20056;-50
2021/09/11 04:38:50;;;;;;;7.72;7.13;;;;;;;20.27;72.42;100761.91;5068966;28;20131;-50
2021/09/11 04:41:16;;;;;;;7.45;6.85;;;;;;;20.28;72.37;100757.44;5069191;28;20086;-51
2021/09/11 04:43:42;;;;;;;8.32;7.53;;;;;;;20.27;72.46;100753.88;5054311;28;20405;-50
2021/09/11 04:46:07;;;;;;;8.27;7.57;;;;;;;20.26;72.37;100754.84;5070168;28;20032;-51
2021/09/11 04:48:34;;;;;;;8.25;7.55;;;;;;;20.26;72.39;100754.84;5069076;28;20111;-50
2021/09/11 04:51:00;;;;;;;8.25;7.55;;;;;;;20.26;72.45;100765.53;5068776;28;20020;-50
2021/09/11 04:53:25;;;;;;;7.53;6.82;;;;;;;20.26;72.48;100762.88;5069486;28;20063;-50
2021/09/11 04:55:51;;;;;;;8.25;7.53;;;;;;;20.26;72.40;100765.53;5069282;28;20051;-50
2021/09/11 04:58:17;;;;;;;8.10;7.40;;;;;;;20.25;72.37;100763.81;5069578;28;20103;-50
2021/09/11 05:00:43;;;;;;;8.00;7.20;;;;;;;20.26;72.28;100773.56;5068802;28;20025;-51
2021/09/11 05:03:09;;;;;;;7.80;7.13;;;;;;;20.24;72.44;100767.44;5069873;28;20024;-50
2021/09/11 05:05:35;;;;;;;8.00;7.30;;;;;;;20.23;72.52;100769.25;5067362;28;20032;-50
2021/09/11 05:08:01;;;;;;;8.30;7.60;;;;;;;20.24;72.39;100773.66;5068705;28;20043;-50
2021/09/11 05:10:28;;;;;;;7.55;6.95;;;;;;;20.24;72.34;100772.81;5069706;28;20047;-51
2021/09/11 05:12:54;;;;;;;7.65;6.90;;;;;;;20.23;72.47;100773.72;5067235;28;20025;-50
2021/09/11 05:15:20;;;;;;;7.68;7.07;;;;;;;20.22;72.44;100774.66;5068816;28;20512;-50
2021/09/11 05:17:46;;;;;;;7.15;6.55;;;;;;;20.23;72.37;100776.41;5069288;28;20032;-50
2021/09/11 05:20:13;;;;;;;8.15;7.45;;;;;;;20.22;72.53;100780.03;5050514;28;20517;-50
2021/09/11 05:22:39;;;;;;;7.13;6.53;;;;;;;20.22;72.56;100780.03;5069857;28;20059;-51
2021/09/11 05:25:06;;;;;;;7.97;7.28;;;;;;;20.22;72.37;100777.34;5068834;28;20032;-50
2021/09/11 05:27:32;;;;;;;8.15;7.45;;;;;;;20.21;72.51;100784.50;5068555;28;20036;-50
2021/09/11 05:29:58;;;;;;;7.20;6.57;;;;;;;20.21;72.39;100784.50;5068838;28;20036;-50
2021/09/11 05:32:24;;;;;;;8.18;7.47;;;;;;;20.20;72.40;100781.91;5068528;28;20029;-50
2021/09/11 05:34:50;;;;;;;7.50;6.90;;;;;;;20.21;72.42;100791.69;5068427;28;20024;-50
2021/09/11 05:37:16;;;;;;;7.70;7.00;;;;;;;20.20;72.40;100779.22;5053149;28;20044;-51
2021/09/11 05:39:42;;;;;;;8.00;7.30;;;;;;;20.20;72.39;100798.84;5068699;28;20017;-50
2021/09/11 05:42:08;;;;;;;7.18;6.55;;;;;;;20.18;72.39;100790.03;5067106;28;20048;-50
2021/09/11 05:44:34;;;;;;;7.57;6.45;;;;;;;20.19;72.42;100802.47;5069415;28;20063;-50
2021/09/11 05:47:00;;;;;;;7.65;7.05;;;;;;;20.17;72.48;100798.13;5069129;28;20123;-50
2021/09/11 05:49:26;;;;;;;7.63;6.95;;;;;;;20.18;72.54;100803.41;5055117;28;20099;-50
2021/09/11 05:51:52;;;;;;;8.05;7.45;;;;;;;20.17;72.48;100793.63;5067960;28;20020;-50
2021/09/11 05:54:18;;;;;;;7.65;7.00;;;;;;;20.17;72.45;100798.13;5069203;28;20056;-50
2021/09/11 05:56:44;;;;;;;7.28;6.68;;;;;;;20.17;72.45;100792.78;5068671;28;20059;-51
2021/09/11 05:59:10;;;;;;;7.75;7.10;;;;;;;20.16;72.44;100796.38;5069812;28;20099;-50
2021/09/11 06:01:36;;;;;;;7.72;7.05;;;;;;;20.16;72.36;100796.38;5067899;28;20033;-50
2021/09/11 06:04:03;;;;;;;7.15;6.55;;;;;;;20.15;72.36;100802.69;5067424;28;20024;-50
2021/09/11 06:06:28;;;;;;;7.45;6.80;;;;;;;20.15;72.42;100800.88;5067947;28;20485;-50
2021/09/11 06:08:54;;;;;;;7.07;6.47;;;;;;;20.15;72.43;100800.00;5067090;28;20056;-50
2021/09/11 06:11:20;;;;;;;7.68;6.95;;;;;;;20.15;72.40;100800.00;5069057;28;20025;-50
2021/09/11 06:13:46;;;;;;;8.05;7.28;;;;;;;20.15;72.43;100800.00;5051386;28;20386;-51
2021/09/11 06:16:12;;;;;;;7.22;6.63;;;;;;;20.13;72.41;100803.63;5068986;28;20025;-50
2021/09/11 06:18:38;;;;;;;7.50;6.80;;;;;;;20.13;72.29;100808.97;5067767;28;20025;-50
2021/09/11 06:21:04;;;;;;;7.35;6.70;;;;;;;20.12;72.40;100809.94;5069014;28;20051;-51
2021/09/11 06:23:30;;;;;;;8.05;7.32;;;;;;;20.13;72.52;100814.34;5036676;28;20055;-49
2021/09/11 06:25:56;;;;;;;7.15;6.55;;;;;;;20.12;72.38;100807.25;5067519;28;20056;-50
2021/09/11 06:28:24;;;;;;;7.03;6.43;;;;;;;20.12;72.40;100804.56;5051804;28;20386;-50
2021/09/11 06:30:50;;;;;;;7.10;6.45;;;;;;;20.13;72.52;100811.66;5068802;28;20025;-50
2021/09/11 06:33:16;;;;;;;6.78;6.20;;;;;;;20.12;72.36;100823.31;5069203;28;20032;-50
2021/09/11 06:35:42;;;;;;;6.63;6.07;;;;;;;20.12;72.28;100823.31;5068820;28;20027;-50
2021/09/11 06:38:08;;;;;;;7.30;6.70;;;;;;;20.10;72.33;100822.50;5069463;28;20462;-50
2021/09/11 06:40:34;;;;;;;6.68;6.18;;;;;;;20.11;72.32;100818.03;5036394;28;20040;-49
2021/09/11 06:42:59;;;;;;;7.05;6.45;;;;;;;20.10;72.50;100825.19;5071891;28;20108;-50
2021/09/11 06:45:25;;;;;;;6.45;5.95;;;;;;;20.10;72.29;100814.47;5071788;28;20025;-50
2021/09/11 06:47:51;;;;;;;6.88;6.28;;;;;;;20.11;72.32;100813.53;5053865;28;20028;-50
2021/09/11 06:50:17;;;;;;;6.68;6.07;;;;;;;20.10;72.36;100817.16;5072203;28;20529;-50
2021/09/11 06:52:43;;;;;;;7.22;6.63;;;;;;;20.11;72.33;100815.34;5053514;28;20020;-51
2021/09/11 06:55:09;;;;;;;7.50;6.90;;;;;;;20.10;72.38;100811.78;5071639;28;20103;-50
2021/09/11 06:57:35;;;;;;;7.07;6.47;;;;;;;20.10;72.36;100819.81;5072503;28;20091;-50
2021/09/11 07:00:03;;;;;;;8.38;7.68;;;;;;;20.10;72.38;100814.47;5072603;28;20421;-50
2021/09/11 07:02:29;;;;;;;7.30;6.70;;;;;;;20.10;72.40;100818.94;5055841;28;20028;-50
2021/09/11 07:04:55;;;;;;;7.38;6.78;;;;;;;20.09;72.43;100826.13;5072887;28;20032;-50
2021/09/11 07:07:20;;;;;;;7.57;6.88;;;;;;;20.09;72.42;100818.09;5071692;28;20032;-50
2021/09/11 07:09:46;;;;;;;8.00;7.20;;;;;;;20.07;72.38;100819.97;5054532;28;20036;-50
2021/09/11 07:12:12;;;;;;;7.05;6.45;;;;;;;20.08;72.43;100821.69;5054140;28;20434;-49
2021/09/11 07:14:38;;;;;;;7.32;6.63;;;;;;;20.09;72.45;100819.91;5071315;28;20052;-50
2021/09/11 07:17:04;;;;;;;7.38;6.78;;;;;;;20.08;72.42;100821.69;5069936;28;20029;-51
2021/09/11 07:19:29;;;;;;;6.97;6.40;;;;;;;20.08;72.41;100827.06;5069327;28;20487;-50
2021/09/11 07:21:56;;;;;;;7.50;6.85;;;;;;;20.09;72.37;100826.13;5057032;28;20415;-51
2021/09/11 07:24:22;;;;;;;6.95;6.35;;;;;;;20.10;72.33;100830.53;5055628;28;20052;-50
2021/09/11 07:26:48;;;;;;;7.88;7.18;;;;;;;20.12;72.25;100833.16;5071908;28;20486;-50
2021/09/11 07:29:15;;;;;;;6.47;5.97;;;;;;;20.15;72.10;100832.13;5069424;28;20059;-50
2021/09/11 07:31:41;;;;;;;7.28;6.57;;;;;;;20.14;72.13;100828.56;5070871;28;20020;-51
2021/09/11 07:34:07;;;;;;;7.47;6.80;;;;;;;20.15;72.04;100824.09;5072055;28;20499;-50
2021/09/11 07:36:33;;;;;;;7.68;7.05;;;;;;;20.16;71.98;100834.75;5072384;28;20025;-51
2021/09/11 07:38:58;;;;;;;7.28;6.68;;;;;;;20.17;72.05;100840.97;5071697;28;20384;-51
2021/09/11 07:41:25;;;;;;;7.95;7.25;;;;;;;20.17;71.98;100840.97;5070048;28;20028;-51
2021/09/11 07:43:50;;;;;;;7.10;6.50;;;;;;;20.17;72.15;100851.69;5056209;28;20054;-51
2021/09/11 07:46:16;;;;;;;7.25;6.55;;;;;;;20.17;72.10;100843.66;5071555;28;20060;-50
2021/09/11 07:48:42;;;;;;;8.18;7.38;;;;;;;20.15;72.18;100851.75;5057215;28;20032;-51
2021/09/11 07:51:08;;;;;;;7.45;6.85;;;;;;;20.16;72.19;100850.81;5035477;28;20031;-49
2021/09/11 07:53:34;;;;;;;7.22;6.53;;;;;;;20.17;72.35;100849.00;5070219;28;20032;-52
2021/09/11 07:56:00;;;;;;;8.02;7.32;;;;;;;20.16;72.38;100845.44;5070500;28;20056;-52
2021/09/11 07:58:26;;;;;;;7.90;7.13;;;;;;;20.16;72.49;100849.91;5069404;28;20056;-49
2021/09/11 08:00:55;;;;;;;7.75;7.05;;;;;;;20.15;72.48;100848.19;5069702;28;20455;-50
2021/09/11 08:03:24;;;;;;;7.57;6.90;;;;;;;20.16;72.48;100840.09;5068264;28;20074;-50
2021/09/11 08:05:50;;;;;;;8.00;7.20;;;;;;;20.18;72.42;100843.59;5069182;28;20062;-50
2021/09/11 08:08:16;;;;;;;7.55;6.95;;;;;;;20.18;72.50;100845.38;5069743;28;20024;-49
2021/09/11 08:10:41;;;;;;;8.25;7.45;;;;;;;20.16;72.33;100852.59;5070686;28;20024;-49
2021/09/11 08:13:07;;;;;;;7.97;7.20;;;;;;;20.16;72.51;100858.84;5069401;28;20036;-49
2021/09/11 08:15:33;;;;;;;8.05;7.35;;;;;;;20.18;72.51;100853.41;5070647;28;20025;-49
2021/09/11 08:18:01;;;;;;;8.40;7.60;;;;;;;20.17;72.67;100857.03;5068898;28;20482;-50
2021/09/11 08:20:32;;;;;;;8.23;7.53;;;;;;;20.18;72.57;100854.28;5067372;28;20191;-50
2021/09/11 08:23:01;;;;;;;8.30;7.53;;;;;;;20.18;72.60;100854.28;5071013;28;20041;-49
2021/09/11 08:25:27;;;;;;;8.02;7.30;;;;;;;20.21;72.52;100854.13;5070579;28;20040;-49
2021/09/11 08:27:53;;;;;;;8.60;7.68;;;;;;;20.19;72.78;100863.16;5070541;28;20464;-49
2021/09/11 08:30:18;;;;;;;7.75;6.95;;;;;;;20.17;72.83;100859.72;5070225;28;20405;-49
2021/09/11 08:32:44;;;;;;;7.80;7.10;;;;;;;20.20;72.65;100862.22;5071057;28;20109;-50
2021/09/11 08:35:13;;;;;;;7.97;7.28;;;;;;;20.19;72.70;100864.06;5054287;28;20077;-50
2021/09/11 08:37:39;;;;;;;7.60;6.95;;;;;;;20.22;72.70;100861.25;5070124;28;20112;-49
2021/09/11 08:40:06;;;;;;;8.27;7.47;;;;;;;20.20;72.61;100859.53;5070192;28;20222;-50
2021/09/11 08:42:32;;;;;;;7.90;7.20;;;;;;;20.17;72.91;100857.88;5069963;28;20024;-50
2021/09/11 08:44:59;;;;;;;8.65;7.53;;;;;;;20.21;72.84;100861.31;5069705;28;20104;-50
2021/09/11 08:47:25;;;;;;;8.05;7.25;;;;;;;20.21;72.72;100863.97;5070372;28;20017;-50
2021/09/11 08:49:51;;;;;;;8.35;7.55;;;;;;;20.22;72.73;100869.28;5070231;28;20025;-49
2021/09/11 08:52:17;;;;;;;7.78;7.07;;;;;;;20.21;72.83;100869.34;5070497;28;20021;-49
2021/09/11 08:54:43;;;;;;;8.57;7.78;;;;;;;20.20;72.97;100870.25;5068966;28;20039;-49
2021/09/11 08:57:21;;;;;;;8.27;7.47;;;;;;;20.21;72.95;100877.38;5070181;28;20377;-49
2021/09/11 08:59:47;;;;;;;8.63;7.50;;;;;;;20.20;73.03;100872.94;5069233;28;20078;-50
2021/09/11 09:02:13;;;;;;;8.70;7.90;;;;;;;20.20;73.05;100878.28;5068951;28;20032;-50
2021/09/11 09:04:43;;;;;;;8.63;7.82;;;;;;;20.21;73.07;100880.03;5069663;28;20028;-49
2021/09/11 09:07:09;;;;;;;8.73;7.95;;;;;;;20.20;73.17;100886.31;5069941;28;20024;-49
2021/09/11 09:09:41;;;;;;;8.23;7.53;;;;;;;20.21;73.10;100877.38;5070218;28;20028;-49
2021/09/11 09:12:14;;;;;;;8.30;7.40;;;;;;;20.20;73.13;100880.97;5067572;28;20078;-50
2021/09/11 09:14:40;;;;;;;8.45;7.65;;;;;;;20.20;73.15;100878.28;5067266;28;20043;-49
2021/09/11 09:17:11;;;;;;;8.27;7.57;;;;;;;20.19;73.17;100887.28;5053160;28;20024;-50
2021/09/11 09:19:37;;;;;;;8.20;7.40;;;;;;;20.20;73.05;100889.88;5055419;28;20027;-50
2021/09/11 09:22:04;;;;;;;7.72;7.03;;;;;;;20.22;73.19;100887.13;5069811;28;20025;-49
2021/09/11 09:24:36;;;;;;;8.35;7.65;;;;;;;20.18;73.12;100883.75;5052712;28;20032;-49
2021/09/11 09:27:09;;;;;;;8.07;7.28;;;;;;;20.19;73.17;100874.75;5068136;28;20441;-49
2021/09/11 09:29:37;;;;;;;9.13;8.27;;;;;;;20.19;73.15;100872.09;5053973;28;20051;-49
2021/09/11 09:32:04;;;;;;;8.38;7.68;;;;;;;20.19;73.10;100880.13;5069351;28;20034;-50
2021/09/11 09:34:36;;;;;;;7.68;6.97;;;;;;;20.20;73.16;100873.81;5069933;28;20488;-50
2021/09/11 09:37:04;;;;;;;8.57;7.78;;;;;;;20.20;73.10;100878.28;5054634;28;20457;-50
2021/09/11 09:39:38;;;;;;;8.57;7.78;;;;;;;20.20;73.17;100878.28;5069763;28;20016;-49
2021/09/11 09:42:04;;;;;;;7.82;7.13;;;;;;;20.21;73.30;100874.69;5055788;28;20031;-50
2021/09/11 09:44:42;;;;;;;8.27;7.57;;;;;;;20.21;73.08;100880.91;5068746;28;20020;-50
2021/09/11 09:47:12;;;;;;;7.68;6.93;;;;;;;20.20;73.19;100865.78;5053190;28;20112;-50
2021/09/11 09:49:38;;;;;;;7.53;6.80;;;;;;;20.21;73.17;100863.97;5069666;28;20429;-49
2021/09/11 09:52:04;;;;;;;7.78;7.03;;;;;;;20.22;73.19;100865.72;5069713;28;20093;-50
2021/09/11 09:54:30;;;;;;;7.95;7.25;;;;;;;20.21;73.26;100859.47;5036684;28;20074;-49
2021/09/11 09:56:57;;;;;;;8.32;7.53;;;;;;;20.21;73.23;100859.47;5069797;28;20071;-50
2021/09/11 09:59:23;;;;;;;7.90;7.20;;;;;;;20.22;73.42;100868.38;5069156;28;20116;-49
2021/09/11 10:01:49;;;;;;;7.47;6.80;;;;;;;20.23;73.26;100856.72;5035912;28;20103;-50
2021/09/11 10:04:21;;;;;;;7.53;6.82;;;;;;;20.21;73.46;100854.13;5052264;28;20032;-50
2021/09/11 10:06:59;;;;;;;7.78;7.07;;;;;;;20.22;73.38;100846.97;5054805;28;20020;-49
2021/09/11 10:09:27;;;;;;;6.82;6.22;;;;;;;20.23;73.39;100852.25;5068124;28;20085;-50
2021/09/11 10:11:54;;;;;;;7.43;6.72;;;;;;;20.23;73.30;100849.56;5053042;28;20031;-50
2021/09/11 10:14:22;;;;;;;8.95;7.03;;;;;;;20.24;73.18;100851.31;5051834;28;20040;-49
2021/09/11 10:17:03;;;;;;;7.32;6.57;;;;;;;20.24;73.30;100850.47;5072957;28;20082;-49
2021/09/11 10:19:31;;;;;;;6.95;6.35;;;;;;;20.24;73.42;100851.31;5070967;28;20162;-50
2021/09/11 10:22:21;;;;;;;8.02;7.22;;;;;;;20.24;73.34;100840.59;5072734;28;20464;-50
2021/09/11 10:24:49;;;;;;;6.80;6.20;;;;;;;20.23;73.34;100846.91;5071551;28;20024;-49
2021/09/11 10:27:23;;;;;;;7.28;6.57;;;;;;;20.25;73.25;100849.50;5073058;28;20078;-49
2021/09/11 10:29:53;;;;;;;7.03;6.40;;;;;;;20.24;73.24;100842.41;5059274;28;20017;-49
2021/09/11 10:32:36;;;;;;;7.60;6.95;;;;;;;20.26;73.20;100843.19;5072647;28;20147;-49
2021/09/11 10:35:16;;;;;;;7.13;6.53;;;;;;;20.26;73.16;100843.19;5072462;28;20119;-49
2021/09/11 10:37:52;;;;;;;7.80;7.10;;;;;;;20.26;73.11;100840.53;5070716;28;20028;-50
2021/09/11 10:40:38;;;;;;;7.15;6.15;;;;;;;20.27;73.24;100842.25;5058141;28;20263;-49
2021/09/11 10:43:04;;;;;;;7.43;5.95;;;;;;;20.26;73.25;100848.56;5072864;28;20024;-49
2021/09/11 10:45:58;;;;;;;7.25;6.55;;;;;;;20.27;73.21;100846.75;5072597;28;20027;-49
2021/09/11 10:48:31;;;;;;;7.00;6.25;;;;;;;20.27;73.22;100841.41;5071494;28;20039;-48
2021/09/11 10:50:57;;;;;;;7.57;6.80;;;;;;;20.27;73.25;100842.25;5058152;28;20044;-50
2021/09/11 10:53:24;;;;;;;7.60;6.90;;;;;;;20.26;73.15;100837.84;5072176;28;20024;-50
2021/09/11 10:55:50;;;;;;;6.53;6.03;;;;;;;20.27;73.15;100842.25;5072452;28;20020;-49
2021/09/11 10:58:23;;;;;;;6.57;5.97;;;;;;;20.27;73.26;100844.09;5072724;28;20066;-49
2021/09/11 11:01:01;;;;;;;6.72;6.10;;;;;;;20.27;73.32;100836.03;5072383;28;20029;-49
2021/09/11 11:03:28;;;;;;;7.32;6.63;;;;;;;20.26;73.27;100835.16;5053432;28;20029;-49
2021/09/11 11:06:04;;;;;;;7.25;6.55;;;;;;;20.25;73.36;100833.44;5071948;28;20163;-49
2021/09/11 11:08:31;;;;;;;7.25;6.55;;;;;;;20.25;73.27;100830.75;5069542;28;20016;-49
2021/09/11 11:10:57;;;;;;;6.88;6.13;;;;;;;20.25;73.16;100828.09;5072291;28;20025;-49
2021/09/11 11:13:24;;;;;;;7.10;6.40;;;;;;;20.25;73.13;100831.59;5037726;28;20112;-50
2021/09/11 11:15:56;;;;;;;8.02;7.22;;;;;;;20.26;73.15;100827.13;5057115;28;20020;-50
2021/09/11 11:18:22;;;;;;;7.00;6.35;;;;;;;20.25;73.22;100823.56;5039604;28;20055;-51
2021/09/11 11:20:48;;;;;;;7.47;6.68;;;;;;;20.27;73.14;100833.38;5054860;28;20020;-49
2021/09/11 11:23:14;;;;;;;7.00;6.40;;;;;;;20.27;73.06;100822.66;5072335;28;20029;-50